sensor_id;sensor_type;location;lat;lon;timestamp;pressure;altitude;pressure_sealevel;temperature;humidity
38716;BME280;24833;49.324;8.694;2023-05-09T00:00:50;100018.53;;;15.46;70.35
38716;BME280;24833;49.324;8.694;2023-05-09T00:03:17;100015.84;;;15.46;70.55
38716;BME280;24833;49.324;8.694;2023-05-09T00:05:44;100005.09;;;15.46;70.44
38716;BME280;24833;49.324;8.694;2023-05-09T00:08:12;100014.22;;;15.45;70.30
38716;BME280;24833;49.324;8.694;2023-05-09T00:10:39;100004.25;;;15.46;69.86
38716;BME280;24833;49.324;8.694;2023-05-09T00:13:06;99998.06;;;15.45;69.46
38716;BME280;24833;49.324;8.694;2023-05-09T00:15:33;99992.88;;;15.44;71.36
38716;BME280;24833;49.324;8.694;2023-05-09T00:18:01;99996.38;;;15.44;70.60
38716;BME280;24833;49.324;8.694;2023-05-09T00:20:28;99993.91;;;15.43;71.26
38716;BME280;24833;49.324;8.694;2023-05-09T00:22:55;99996.84;;;15.41;71.33
38716;BME280;24833;49.324;8.694;2023-05-09T00:25:22;99989.81;;;15.40;71.31
38716;BME280;24833;49.324;8.694;2023-05-09T00:27:49;99990.88;;;15.39;71.60
38716;BME280;24833;49.324;8.694;2023-05-09T00:30:16;99990.25;;;15.37;71.77
38716;BME280;24833;49.324;8.694;2023-05-09T00:32:43;99993.16;;;15.36;71.84
38716;BME280;24833;49.324;8.694;2023-05-09T00:35:11;99985.31;;;15.34;70.52
38716;BME280;24833;49.324;8.694;2023-05-09T00:37:38;99990.94;;;15.33;69.85
38716;BME280;24833;49.324;8.694;2023-05-09T00:40:06;99976.03;;;15.30;70.72
38716;BME280;24833;49.324;8.694;2023-05-09T00:42:35;99984.56;;;15.27;72.60
38716;BME280;24833;49.324;8.694;2023-05-09T00:45:02;99981.88;;;15.27;71.02
38716;BME280;24833;49.324;8.694;2023-05-09T00:47:30;99979.59;;;15.24;72.82
38716;BME280;24833;49.324;8.694;2023-05-09T00:49:57;99975.25;;;15.23;71.76
38716;BME280;24833;49.324;8.694;2023-05-09T00:52:25;99969.28;;;15.21;72.36
38716;BME280;24833;49.324;8.694;2023-05-09T00:54:54;99968.47;;;15.20;71.90
38716;BME280;24833;49.324;8.694;2023-05-09T00:57:22;99971.38;;;15.19;71.40
38716;BME280;24833;49.324;8.694;2023-05-09T00:59:49;99976.78;;;15.19;70.57
38716;BME280;24833;49.324;8.694;2023-05-09T01:02:17;99976.16;;;15.17;71.30
38716;BME280;24833;49.324;8.694;2023-05-09T01:04:45;99979.66;;;15.17;70.58
38716;BME280;24833;49.324;8.694;2023-05-09T01:10:28;99978.84;;;15.17;69.46
38716;BME280;24833;49.324;8.694;2023-05-09T01:13:05;99980.72;;;15.16;70.19
38716;BME280;24833;49.324;8.694;2023-05-09T01:15:43;99973.47;;;15.17;71.78
38716;BME280;24833;49.324;8.694;2023-05-09T01:18:25;99971.59;;;15.17;72.04
38716;BME280;24833;49.324;8.694;2023-05-09T01:21:04;99969.72;;;15.18;72.55
38716;BME280;24833;49.324;8.694;2023-05-09T01:26:18;99968.91;;;15.17;71.30
38716;BME280;24833;49.324;8.694;2023-05-09T01:32:08;99954.63;;;15.17;69.99
38716;BME280;24833;49.324;8.694;2023-05-09T01:34:38;99954.63;;;15.17;70.65
38716;BME280;24833;49.324;8.694;2023-05-09T01:37:06;99947.59;;;15.16;70.63
38716;BME280;24833;49.324;8.694;2023-05-09T01:39:39;99961.06;;;15.16;70.77
38716;BME280;24833;49.324;8.694;2023-05-09T01:42:08;99951.13;;;15.16;71.40
38716;BME280;24833;49.324;8.694;2023-05-09T01:44:39;99936.03;;;15.15;71.48
38716;BME280;24833;49.324;8.694;2023-05-09T01:47:07;99943.28;;;15.15;71.08
38716;BME280;24833;49.324;8.694;2023-05-09T01:49:37;99938.94;;;15.14;72.79
38716;BME280;24833;49.324;8.694;2023-05-09T01:52:10;99944.56;;;15.12;71.54
38716;BME280;24833;49.324;8.694;2023-05-09T01:54:39;99945.59;;;15.11;72.05
38716;BME280;24833;49.324;8.694;2023-05-09T01:57:07;99951.16;;;15.10;71.97
38716;BME280;24833;49.324;8.694;2023-05-09T01:59:42;99946.03;;;15.08;71.36
38716;BME280;24833;49.324;8.694;2023-05-09T02:02:10;99948.94;;;15.07;73.35
38716;BME280;24833;49.324;8.694;2023-05-09T02:04:39;99948.34;;;15.05;72.26
38716;BME280;24833;49.324;8.694;2023-05-09T02:07:08;99950.19;;;15.04;72.10
38716;BME280;24833;49.324;8.694;2023-05-09T02:09:36;99945.84;;;15.03;70.57
38716;BME280;24833;49.324;8.694;2023-05-09T02:12:03;99952.06;;;15.04;70.51
38716;BME280;24833;49.324;8.694;2023-05-09T02:14:31;99936.13;;;15.02;71.19
38716;BME280;24833;49.324;8.694;2023-05-09T02:17:00;99936.97;;;15.03;71.71
38716;BME280;24833;49.324;8.694;2023-05-09T02:19:34;99942.13;;;15.04;72.86
38716;BME280;24833;49.324;8.694;2023-05-09T02:22:02;99933.84;;;15.06;72.03
38716;BME280;24833;49.324;8.694;2023-05-09T02:24:32;99935.91;;;15.04;71.52
38716;BME280;24833;49.324;8.694;2023-05-09T02:27:01;99932.22;;;15.05;71.58
38716;BME280;24833;49.324;8.694;2023-05-09T02:29:36;99929.28;;;15.06;72.00
38716;BME280;24833;49.324;8.694;2023-05-09T02:32:14;99930.09;;;15.07;72.72
38716;BME280;24833;49.324;8.694;2023-05-09T02:34:43;99920.16;;;15.07;73.34
38716;BME280;24833;49.324;8.694;2023-05-09T02:37:12;99932.81;;;15.07;72.18
38716;BME280;24833;49.324;8.694;2023-05-09T02:39:39;99924.72;;;15.07;71.67
38716;BME280;24833;49.324;8.694;2023-05-09T02:42:09;99932.56;;;15.08;70.86
38716;BME280;24833;49.324;8.694;2023-05-09T02:44:37;99931.75;;;15.08;70.73
38716;BME280;24833;49.324;8.694;2023-05-09T02:47:07;99933.41;;;15.09;71.58
38716;BME280;24833;49.324;8.694;2023-05-09T02:49:34;99926.97;;;15.10;71.84
38716;BME280;24833;49.324;8.694;2023-05-09T02:52:04;99926.16;;;15.09;71.00
38716;BME280;24833;49.324;8.694;2023-05-09T02:54:31;99918.91;;;15.10;70.96
38716;BME280;24833;49.324;8.694;2023-05-09T02:56:58;99916.19;;;15.10;72.42
38716;BME280;24833;49.324;8.694;2023-05-09T02:59:25;99922.63;;;15.09;71.48
38716;BME280;24833;49.324;8.694;2023-05-09T03:01:52;99923.44;;;15.09;72.16
38716;BME280;24833;49.324;8.694;2023-05-09T03:04:20;99918.06;;;15.09;72.38
38716;BME280;24833;49.324;8.694;2023-05-09T03:06:47;99921.00;;;15.08;71.68
38716;BME280;24833;49.324;8.694;2023-05-09T03:09:14;99916.66;;;15.07;71.77
38716;BME280;24833;49.324;8.694;2023-05-09T03:11:41;99908.59;;;15.07;71.29
38716;BME280;24833;49.324;8.694;2023-05-09T03:14:08;99903.44;;;15.05;71.42
38716;BME280;24833;49.324;8.694;2023-05-09T03:16:37;99900.75;;;15.05;71.64
38716;BME280;24833;49.324;8.694;2023-05-09T03:19:08;99910.47;;;15.06;71.03
38716;BME280;24833;49.324;8.694;2023-05-09T03:21:35;99901.56;;;15.06;72.38
38716;BME280;24833;49.324;8.694;2023-05-09T03:24:02;99899.94;;;15.05;71.69
38716;BME280;24833;49.324;8.694;2023-05-09T03:26:30;99901.78;;;15.04;72.08
38716;BME280;24833;49.324;8.694;2023-05-09T03:28:58;99894.56;;;15.05;73.16
38716;BME280;24833;49.324;8.694;2023-05-09T03:31:25;99897.44;;;15.03;72.54
38716;BME280;24833;49.324;8.694;2023-05-09T03:33:52;99889.38;;;15.03;73.19
38716;BME280;24833;49.324;8.694;2023-05-09T03:36:20;99885.84;;;15.03;72.28
38716;BME280;24833;49.324;8.694;2023-05-09T03:38:47;99884.22;;;15.02;72.05
38716;BME280;24833;49.324;8.694;2023-05-09T03:41:16;99886.91;;;15.02;71.54
38716;BME280;24833;49.324;8.694;2023-05-09T03:43:46;99883.41;;;15.01;73.60
38716;BME280;24833;49.324;8.694;2023-05-09T03:46:13;99891.47;;;15.01;71.74
38716;BME280;24833;49.324;8.694;2023-05-09T03:48:43;99889.81;;;15.00;73.21
38716;BME280;24833;49.324;8.694;2023-05-09T03:51:10;99892.50;;;15.00;73.58
38716;BME280;24833;49.324;8.694;2023-05-09T03:53:40;99891.69;;;14.99;72.15
38716;BME280;24833;49.324;8.694;2023-05-09T03:56:08;99890.06;;;14.98;71.90
38716;BME280;24833;49.324;8.694;2023-05-09T03:58:43;99890.06;;;14.98;71.98
38716;BME280;24833;49.324;8.694;2023-05-09T04:01:10;99891.94;;;14.98;72.25
38716;BME280;24833;49.324;8.694;2023-05-09T04:03:38;99882.00;;;14.98;72.58
38716;BME280;24833;49.324;8.694;2023-05-09T04:06:06;99889.25;;;14.98;73.65
38716;BME280;24833;49.324;8.694;2023-05-09T04:08:37;99880.31;;;14.97;72.62
38716;BME280;24833;49.324;8.694;2023-05-09T04:11:04;99888.38;;;14.97;72.89
38716;BME280;24833;49.324;8.694;2023-05-09T04:13:32;99888.38;;;14.97;71.95
38716;BME280;24833;49.324;8.694;2023-05-09T04:16:05;99881.38;;;14.96;73.33
38716;BME280;24833;49.324;8.694;2023-05-09T04:18:33;99884.06;;;14.96;73.76
38716;BME280;24833;49.324;8.694;2023-05-09T04:21:00;99882.41;;;14.95;72.12
38716;BME280;24833;49.324;8.694;2023-05-09T04:23:27;99886.75;;;14.96;73.38
38716;BME280;24833;49.324;8.694;2023-05-09T04:25:57;99890.47;;;14.95;72.46
38716;BME280;24833;49.324;8.694;2023-05-09T04:28:24;99885.09;;;14.95;72.73
38716;BME280;24833;49.324;8.694;2023-05-09T04:30:51;99885.09;;;14.95;72.91
38716;BME280;24833;49.324;8.694;2023-05-09T04:33:19;99885.91;;;14.96;72.98
38716;BME280;24833;49.324;8.694;2023-05-09T04:35:47;99878.09;;;14.94;72.84
38716;BME280;24833;49.324;8.694;2023-05-09T04:38:14;99880.78;;;14.94;72.18
38716;BME280;24833;49.324;8.694;2023-05-09T04:40:42;99887.19;;;14.93;71.94
38716;BME280;24833;49.324;8.694;2023-05-09T04:43:09;99888.03;;;14.94;71.96
38716;BME280;24833;49.324;8.694;2023-05-09T04:45:37;99891.53;;;14.94;72.09
38716;BME280;24833;49.324;8.694;2023-05-09T04:48:04;99888.84;;;14.94;71.95
38716;BME280;24833;49.324;8.694;2023-05-09T04:50:31;99893.41;;;14.94;72.35
38716;BME280;24833;49.324;8.694;2023-05-09T04:52:58;99891.31;;;14.96;74.40
38716;BME280;24833;49.324;8.694;2023-05-09T04:55:25;99889.44;;;14.96;71.70
38716;BME280;24833;49.324;8.694;2023-05-09T04:57:54;99883.22;;;14.96;72.05
38716;BME280;24833;49.324;8.694;2023-05-09T05:00:21;99884.69;;;14.98;72.48
38716;BME280;24833;49.324;8.694;2023-05-09T05:02:48;99888.38;;;14.97;74.59
38716;BME280;24833;49.324;8.694;2023-05-09T05:05:16;99880.31;;;14.97;73.02
38716;BME280;24833;49.324;8.694;2023-05-09T05:07:43;99880.31;;;14.97;75.13
38716;BME280;24833;49.324;8.694;2023-05-09T05:10:15;99876.81;;;14.97;74.68
38716;BME280;24833;49.324;8.694;2023-05-09T05:12:46;99879.28;;;14.98;74.70
38716;BME280;24833;49.324;8.694;2023-05-09T05:15:14;99865.84;;;14.98;74.21
38716;BME280;24833;49.324;8.694;2023-05-09T05:17:44;99866.88;;;14.97;73.03
38716;BME280;24833;49.324;8.694;2023-05-09T05:20:11;99868.53;;;14.98;73.18
38716;BME280;24833;49.324;8.694;2023-05-09T05:22:43;99873.91;;;14.98;72.92
38716;BME280;24833;49.324;8.694;2023-05-09T05:25:11;99881.75;;;15.00;73.51
38716;BME280;24833;49.324;8.694;2023-05-09T05:27:40;99871.81;;;15.01;73.96
38716;BME280;24833;49.324;8.694;2023-05-09T05:30:10;99868.09;;;15.02;73.68
38716;BME280;24833;49.324;8.694;2023-05-09T05:32:37;99869.50;;;15.04;73.63
38716;BME280;24833;49.324;8.694;2023-05-09T05:35:04;99867.66;;;15.05;73.44
38716;BME280;24833;49.324;8.694;2023-05-09T05:37:35;99866.38;;;15.07;73.51
38716;BME280;24833;49.324;8.694;2023-05-09T05:40:02;99868.84;;;15.09;73.87
38716;BME280;24833;49.324;8.694;2023-05-09T05:42:30;99869.44;;;15.11;73.87
38716;BME280;24833;49.324;8.694;2023-05-09T05:44:57;99863.63;;;15.14;74.35
38716;BME280;24833;49.324;8.694;2023-05-09T05:47:36;99858.00;;;15.15;75.66
38716;BME280;24833;49.324;8.694;2023-05-09T05:50:05;99862.09;;;15.18;75.26
38716;BME280;24833;49.324;8.694;2023-05-09T05:52:38;99857.94;;;15.22;75.49
38716;BME280;24833;49.324;8.694;2023-05-09T05:55:07;99861.00;;;15.25;74.66
38716;BME280;24833;49.324;8.694;2023-05-09T05:57:35;99856.81;;;15.30;74.21
38716;BME280;24833;49.324;8.694;2023-05-09T06:00:07;99846.22;;;15.35;76.41
38716;BME280;24833;49.324;8.694;2023-05-09T06:02:45;99854.66;;;15.38;76.13
38716;BME280;24833;49.324;8.694;2023-05-09T06:05:21;99860.88;;;15.39;76.26
38716;BME280;24833;49.324;8.694;2023-05-09T06:07:49;99860.16;;;15.43;75.99
38716;BME280;24833;49.324;8.694;2023-05-09T06:10:16;99872.16;;;15.47;74.43
38716;BME280;24833;49.324;8.694;2023-05-09T06:12:44;99864.66;;;15.49;74.83
38716;BME280;24833;49.324;8.694;2023-05-09T06:15:11;99858.84;;;15.52;75.14
38716;BME280;24833;49.324;8.694;2023-05-09T06:17:43;99854.03;;;15.54;74.92
38716;BME280;24833;49.324;8.694;2023-05-09T06:20:10;99849.25;;;15.57;75.88
38716;BME280;24833;49.324;8.694;2023-05-09T06:22:37;99838.47;;;15.57;76.95
38716;BME280;24833;49.324;8.694;2023-05-09T06:25:04;99842.59;;;15.59;76.35
38716;BME280;24833;49.324;8.694;2023-05-09T06:27:37;99844.63;;;15.64;75.24
38716;BME280;24833;49.324;8.694;2023-05-09T06:30:05;99841.28;;;15.68;75.16
38716;BME280;24833;49.324;8.694;2023-05-09T06:32:51;99841.66;;;15.72;75.85
38716;BME280;24833;49.324;8.694;2023-05-09T06:35:18;99837.44;;;15.76;75.68
38716;BME280;24833;49.324;8.694;2023-05-09T06:37:45;99833.69;;;15.77;77.10
38716;BME280;24833;49.324;8.694;2023-05-09T06:40:15;99835.94;;;15.80;76.02
38716;BME280;24833;49.324;8.694;2023-05-09T06:42:42;99836.75;;;15.80;76.36
38716;BME280;24833;49.324;8.694;2023-05-09T06:45:10;99833.84;;;15.82;76.19
38716;BME280;24833;49.324;8.694;2023-05-09T06:47:37;99836.91;;;15.86;76.05
38716;BME280;24833;49.324;8.694;2023-05-09T06:50:05;99832.91;;;15.88;76.09
38716;BME280;24833;49.324;8.694;2023-05-09T06:52:32;99843.84;;;15.93;75.13
38716;BME280;24833;49.324;8.694;2023-05-09T06:54:59;99834.22;;;15.97;75.49
38716;BME280;24833;49.324;8.694;2023-05-09T06:57:26;99841.19;;;16.05;74.57
38716;BME280;24833;49.324;8.694;2023-05-09T06:59:53;99826.56;;;16.13;74.72
38716;BME280;24833;49.324;8.694;2023-05-09T07:02:20;99821.91;;;16.20;75.18
38716;BME280;24833;49.324;8.694;2023-05-09T07:04:47;99821.56;;;16.28;75.01
38716;BME280;24833;49.324;8.694;2023-05-09T07:07:18;99815.56;;;16.38;75.60
38716;BME280;24833;49.324;8.694;2023-05-09T07:09:44;99809.88;;;16.46;75.94
38716;BME280;24833;49.324;8.694;2023-05-09T07:12:18;99818.66;;;16.53;75.25
38716;BME280;24833;49.324;8.694;2023-05-09T07:14:45;99817.75;;;16.59;74.81
38716;BME280;24833;49.324;8.694;2023-05-09T07:17:12;99818.66;;;16.65;74.88
38716;BME280;24833;49.324;8.694;2023-05-09T07:19:50;99815.06;;;16.71;74.71
38716;BME280;24833;49.324;8.694;2023-05-09T07:22:17;99811.91;;;16.74;74.88
38716;BME280;24833;49.324;8.694;2023-05-09T07:24:44;99806.84;;;16.77;74.18
38716;BME280;24833;49.324;8.694;2023-05-09T07:27:12;99809.34;;;16.79;74.53
38716;BME280;24833;49.324;8.694;2023-05-09T07:29:39;99800.19;;;16.80;75.07
38716;BME280;24833;49.324;8.694;2023-05-09T07:32:06;99786.69;;;16.80;74.89
38716;BME280;24833;49.324;8.694;2023-05-09T07:34:35;99782.69;;;16.82;75.07
38716;BME280;24833;49.324;8.694;2023-05-09T07:37:02;99786.78;;;16.85;75.54
38716;BME280;24833;49.324;8.694;2023-05-09T07:39:29;99784.44;;;16.88;75.56
38716;BME280;24833;49.324;8.694;2023-05-09T07:41:56;99785.38;;;16.94;75.68
38716;BME280;24833;49.324;8.694;2023-05-09T07:44:23;99785.59;;;17.04;76.05
38716;BME280;24833;49.324;8.694;2023-05-09T07:46:50;99784.19;;;17.13;76.70
38716;BME280;24833;49.324;8.694;2023-05-09T07:49:17;99782.72;;;17.23;75.95
38716;BME280;24833;49.324;8.694;2023-05-09T07:51:44;99776.13;;;17.30;76.07
38716;BME280;24833;49.324;8.694;2023-05-09T07:54:11;99768.50;;;17.39;76.02
38716;BME280;24833;49.324;8.694;2023-05-09T07:56:38;99760.59;;;17.49;75.93
38716;BME280;24833;49.324;8.694;2023-05-09T07:59:05;99759.72;;;17.60;75.91
38716;BME280;24833;49.324;8.694;2023-05-09T08:01:32;99760.53;;;17.73;75.85
38716;BME280;24833;49.324;8.694;2023-05-09T08:03:59;99763.97;;;17.85;75.81
38716;BME280;24833;49.324;8.694;2023-05-09T08:06:27;99765.78;;;17.96;75.74
38716;BME280;24833;49.324;8.694;2023-05-09T08:08:54;99760.56;;;18.06;75.99
38716;BME280;24833;49.324;8.694;2023-05-09T08:11:21;99751.94;;;18.09;75.79
38716;BME280;24833;49.324;8.694;2023-05-09T08:13:48;99746.94;;;18.18;75.88
38716;BME280;24833;49.324;8.694;2023-05-09T08:16:16;99742.53;;;18.29;75.31
38716;BME280;24833;49.324;8.694;2023-05-09T08:18:43;99740.22;;;18.37;75.64
38716;BME280;24833;49.324;8.694;2023-05-09T08:21:10;99734.09;;;18.42;75.57
38716;BME280;24833;49.324;8.694;2023-05-09T08:23:37;99725.47;;;18.45;75.50
38716;BME280;24833;49.324;8.694;2023-05-09T08:26:06;99725.78;;;18.48;75.13
38716;BME280;24833;49.324;8.694;2023-05-09T08:28:33;99728.25;;;18.50;75.51
38716;BME280;24833;49.324;8.694;2023-05-09T08:31:00;99724.81;;;18.55;75.03
38716;BME280;24833;49.324;8.694;2023-05-09T08:33:27;99724.56;;;18.56;75.14
38716;BME280;24833;49.324;8.694;2023-05-09T08:35:54;99717.88;;;18.64;75.22
38716;BME280;24833;49.324;8.694;2023-05-09T08:38:22;99723.75;;;18.72;75.16
38716;BME280;24833;49.324;8.694;2023-05-09T08:40:50;99720.59;;;18.81;75.27
38716;BME280;24833;49.324;8.694;2023-05-09T08:43:17;99718.78;;;18.86;75.03
38716;BME280;24833;49.324;8.694;2023-05-09T08:46:00;99710.22;;;18.94;75.10
38716;BME280;24833;49.324;8.694;2023-05-09T08:48:29;99708.31;;;18.95;75.14
38716;BME280;24833;49.324;8.694;2023-05-09T08:50:57;99703.53;;;19.02;75.15
38716;BME280;24833;49.324;8.694;2023-05-09T08:53:24;99714.16;;;19.09;74.94
38716;BME280;24833;49.324;8.694;2023-05-09T08:55:52;99698.03;;;19.19;75.08
38716;BME280;24833;49.324;8.694;2023-05-09T08:58:20;99700.88;;;19.29;74.79
38716;BME280;24833;49.324;8.694;2023-05-09T09:00:48;99697.75;;;19.42;75.06
38716;BME280;24833;49.324;8.694;2023-05-09T09:03:16;99696.22;;;19.51;75.28
38716;BME280;24833;49.324;8.694;2023-05-09T09:05:44;99698.78;;;19.63;75.02
38716;BME280;24833;49.324;8.694;2023-05-09T09:08:13;99692.41;;;19.74;75.21
38716;BME280;24833;49.324;8.694;2023-05-09T09:10:41;99684.88;;;19.81;75.41
38716;BME280;24833;49.324;8.694;2023-05-09T09:13:14;99683.63;;;19.94;75.12
38716;BME280;24833;49.324;8.694;2023-05-09T09:15:44;99684.50;;;20.05;75.18
38716;BME280;24833;49.324;8.694;2023-05-09T09:18:21;99677.81;;;20.18;74.76
38716;BME280;24833;49.324;8.694;2023-05-09T09:21:07;99671.94;;;20.31;75.16
38716;BME280;24833;49.324;8.694;2023-05-09T09:23:38;99663.56;;;20.37;74.67
38716;BME280;24833;49.324;8.694;2023-05-09T09:26:05;99660.38;;;20.46;74.69
38716;BME280;24833;49.324;8.694;2023-05-09T09:28:33;99656.09;;;20.55;74.45
38716;BME280;24833;49.324;8.694;2023-05-09T09:31:00;99652.59;;;20.64;74.47
38716;BME280;24833;49.324;8.694;2023-05-09T09:33:28;99654.28;;;20.76;74.42
38716;BME280;24833;49.324;8.694;2023-05-09T09:35:56;99655.66;;;20.73;73.21
38716;BME280;24833;49.324;8.694;2023-05-09T09:38:23;99648.31;;;20.74;72.92
38716;BME280;24833;49.324;8.694;2023-05-09T09:43:17;99644.84;;;20.88;73.44
38716;BME280;24833;49.324;8.694;2023-05-09T09:45:52;99644.31;;;20.97;73.38
38716;BME280;24833;49.324;8.694;2023-05-09T09:48:27;99641.88;;;21.05;73.62
38716;BME280;24833;49.324;8.694;2023-05-09T09:50:56;99633.50;;;21.12;73.13
38716;BME280;24833;49.324;8.694;2023-05-09T09:53:25;99628.06;;;21.17;72.99
38716;BME280;24833;49.324;8.694;2023-05-09T09:55:55;99617.50;;;21.20;72.86
38716;BME280;24833;49.324;8.694;2023-05-09T09:58:23;99617.00;;;21.29;72.51
38716;BME280;24833;49.324;8.694;2023-05-09T10:01:10;99602.84;;;21.32;72.08
38716;BME280;24833;49.324;8.694;2023-05-09T10:03:42;99596.34;;;21.43;73.10
38716;BME280;24833;49.324;8.694;2023-05-09T10:06:14;99603.16;;;21.56;73.32
38716;BME280;24833;49.324;8.694;2023-05-09T10:08:44;99600.41;;;21.66;72.76
38716;BME280;24833;49.324;8.694;2023-05-09T10:11:13;99603.94;;;21.76;72.86
38716;BME280;24833;49.324;8.694;2023-05-09T10:13:41;99597.13;;;21.84;72.00
38716;BME280;24833;49.324;8.694;2023-05-09T10:16:10;99602.00;;;21.97;72.60
38716;BME280;24833;49.324;8.694;2023-05-09T10:18:38;99594.91;;;22.07;72.13
38716;BME280;24833;49.324;8.694;2023-05-09T10:21:11;99582.94;;;22.18;72.35
38716;BME280;24833;49.324;8.694;2023-05-09T10:23:44;99579.69;;;22.21;71.05
38716;BME280;24833;49.324;8.694;2023-05-09T10:26:22;99578.28;;;22.34;72.42
38716;BME280;24833;49.324;8.694;2023-05-09T10:28:57;99567.88;;;22.46;71.77
38716;BME280;24833;49.324;8.694;2023-05-09T10:31:28;99568.13;;;22.54;71.00
38716;BME280;24833;49.324;8.694;2023-05-09T10:34:01;99565.88;;;22.67;71.40
38716;BME280;24833;49.324;8.694;2023-05-09T10:36:31;99556.03;;;22.76;71.54
38716;BME280;24833;49.324;8.694;2023-05-09T10:38:59;99553.28;;;22.86;71.15
38716;BME280;24833;49.324;8.694;2023-05-09T10:41:26;99545.84;;;22.97;70.88
38716;BME280;24833;49.324;8.694;2023-05-09T10:43:57;99543.88;;;23.07;71.12
38716;BME280;24833;49.324;8.694;2023-05-09T10:46:25;99539.47;;;23.11;69.50
38716;BME280;24833;49.324;8.694;2023-05-09T10:48:53;99539.97;;;23.19;70.19
38716;BME280;24833;49.324;8.694;2023-05-09T10:51:22;99530.69;;;23.20;68.94
38716;BME280;24833;49.324;8.694;2023-05-09T10:53:50;99519.84;;;23.15;68.83
38716;BME280;24833;49.324;8.694;2023-05-09T10:56:29;99523.63;;;23.19;69.13
38716;BME280;24833;49.324;8.694;2023-05-09T10:58:58;99517.84;;;23.25;69.72
38716;BME280;24833;49.324;8.694;2023-05-09T11:01:35;99513.13;;;23.36;69.88
38716;BME280;24833;49.324;8.694;2023-05-09T11:04:15;99503.69;;;23.52;70.47
38716;BME280;24833;49.324;8.694;2023-05-09T11:06:52;99503.59;;;23.68;69.96
38716;BME280;24833;49.324;8.694;2023-05-09T11:09:34;99502.41;;;23.74;69.03
38716;BME280;24833;49.324;8.694;2023-05-09T11:14:42;99489.28;;;23.81;66.90
38716;BME280;24833;49.324;8.694;2023-05-09T11:22:39;99485.03;;;23.70;67.03
38716;BME280;24833;49.324;8.694;2023-05-09T11:25:12;99474.63;;;23.72;67.26
38716;BME280;24833;49.324;8.694;2023-05-09T11:27:48;99474.56;;;23.77;67.72
38716;BME280;24833;49.324;8.694;2023-05-09T11:30:18;99465.75;;;23.85;67.12
38716;BME280;24833;49.324;8.694;2023-05-09T11:32:54;99460.75;;;23.92;66.06
38716;BME280;24833;49.324;8.694;2023-05-09T11:35:25;99457.25;;;23.86;65.98
38716;BME280;24833;49.324;8.694;2023-05-09T11:38:05;99454.63;;;23.81;65.72
38716;BME280;24833;49.324;8.694;2023-05-09T11:40:33;99448.16;;;23.72;65.22
38716;BME280;24833;49.324;8.694;2023-05-09T11:43:01;99441.44;;;23.64;65.22
38716;BME280;24833;49.324;8.694;2023-05-09T11:45:31;99440.44;;;23.55;65.33
38716;BME280;24833;49.324;8.694;2023-05-09T11:47:58;99443.19;;;23.50;65.41
38716;BME280;24833;49.324;8.694;2023-05-09T11:50:27;99443.19;;;23.50;65.39
38716;BME280;24833;49.324;8.694;2023-05-09T11:52:55;99434.44;;;23.53;65.65
38716;BME280;24833;49.324;8.694;2023-05-09T11:55:22;99428.47;;;23.51;64.85
38716;BME280;24833;49.324;8.694;2023-05-09T11:57:52;99425.69;;;23.56;64.73
38716;BME280;24833;49.324;8.694;2023-05-09T12:00:22;99419.88;;;23.68;65.49
38716;BME280;24833;49.324;8.694;2023-05-09T12:02:51;99412.13;;;23.75;65.13
38716;BME280;24833;49.324;8.694;2023-05-09T12:05:21;99412.72;;;23.72;64.28
38716;BME280;24833;49.324;8.694;2023-05-09T12:07:49;99401.59;;;23.69;63.31
38716;BME280;24833;49.324;8.694;2023-05-09T12:10:21;99395.84;;;23.70;64.33
38716;BME280;24833;49.324;8.694;2023-05-09T12:12:51;99392.59;;;23.68;63.95
38716;BME280;24833;49.324;8.694;2023-05-09T12:15:18;99393.41;;;23.69;64.21
38716;BME280;24833;49.324;8.694;2023-05-09T12:18:04;99380.66;;;23.59;64.27
38716;BME280;24833;49.324;8.694;2023-05-09T12:20:48;99379.38;;;23.51;63.46
38716;BME280;24833;49.324;8.694;2023-05-09T12:23:18;99373.47;;;23.44;63.76
38716;BME280;24833;49.324;8.694;2023-05-09T12:25:54;99376.25;;;23.39;63.90
38716;BME280;24833;49.324;8.694;2023-05-09T12:28:25;99370.34;;;23.32;64.00
38716;BME280;24833;49.324;8.694;2023-05-09T12:30:53;99362.75;;;23.29;64.08
38716;BME280;24833;49.324;8.694;2023-05-09T12:33:20;99365.81;;;23.22;63.40
38716;BME280;24833;49.324;8.694;2023-05-09T12:36:07;99361.63;;;23.06;63.24
38716;BME280;24833;49.324;8.694;2023-05-09T12:38:36;99352.16;;;22.98;63.40
38716;BME280;24833;49.324;8.694;2023-05-09T12:41:06;99348.97;;;22.91;63.49
38716;BME280;24833;49.324;8.694;2023-05-09T12:43:48;99340.84;;;22.86;63.85
38716;BME280;24833;49.324;8.694;2023-05-09T12:46:19;99338.38;;;22.84;64.41
38716;BME280;24833;49.324;8.694;2023-05-09T12:48:46;99334.31;;;22.82;63.63
38716;BME280;24833;49.324;8.694;2023-05-09T12:51:20;99331.91;;;22.80;63.85
38716;BME280;24833;49.324;8.694;2023-05-09T12:53:47;99338.53;;;22.69;63.79
38716;BME280;24833;49.324;8.694;2023-05-09T12:56:19;99332.06;;;22.60;64.05
38716;BME280;24833;49.324;8.694;2023-05-09T12:58:54;99331.91;;;22.46;64.89
38716;BME280;24833;49.324;8.694;2023-05-09T13:01:27;99324.94;;;22.35;66.48
38716;BME280;24833;49.324;8.694;2023-05-09T13:04:03;99319.97;;;22.42;67.97
38716;BME280;24833;49.324;8.694;2023-05-09T13:06:31;99318.66;;;22.69;68.88
38716;BME280;24833;49.324;8.694;2023-05-09T13:09:03;99312.91;;;22.99;69.41
38716;BME280;24833;49.324;8.694;2023-05-09T13:11:31;99305.53;;;23.29;69.94
38716;BME280;24833;49.324;8.694;2023-05-09T13:13:58;99295.38;;;23.53;69.69
38716;BME280;24833;49.324;8.694;2023-05-09T13:16:26;99291.91;;;23.72;69.66
38716;BME280;24833;49.324;8.694;2023-05-09T13:18:53;99289.19;;;23.90;70.09
38716;BME280;24833;49.324;8.694;2023-05-09T13:21:20;99276.91;;;24.07;69.67
38716;BME280;24833;49.324;8.694;2023-05-09T13:23:47;99280.00;;;24.19;70.02
38716;BME280;24833;49.324;8.694;2023-05-09T13:26:15;99274.69;;;24.28;69.36
38716;BME280;24833;49.324;8.694;2023-05-09T13:28:42;99274.91;;;24.31;68.75
38716;BME280;24833;49.324;8.694;2023-05-09T13:31:09;99268.59;;;24.36;68.96